Date,TemperatureHighF,TemperatureAvgF,TemperatureLowF,DewpointHighF,DewpointAvgF,DewpointLowF,HumidityHigh,HumidityAvg,HumidityLow,PressureMaxIn,PressureMinIn,WindSpeedMaxMPH,WindSpeedAvgMPH,GustSpeedMaxMPH,PrecipitationSumIn
2013-6-1,74.2,69.8,66.6,64.4,62.6,61.3,84,78,71,29.80,29.71,2,0,3,0.00
2013-6-2,69.8,64.0,53.3,63.3,56.8,44.1,91,78,66,29.99,29.68,5,1,7,0.00
2013-6-3,69.1,55.5,43.4,47.3,43.0,38.5,85,65,43,30.08,29.98,3,1,6,0.00
2013-6-4,74.3,58.8,47.2,52.8,46.1,38.3,88,65,45,30.20,30.08,2,0,4,0.00
2013-6-5,75.1,59.9,48.1,50.8,44.6,38.3,74,58,40,30.19,30.01,4,0,4,0.00
2013-6-6,67.1,60.1,56.0,55.4,49.0,43.7,76,67,61,30.02,29.87,3,0,4,0.00
2013-6-7,61.4,56.4,51.3,54.1,50.7,46.7,87,81,76,29.93,29.87,2,0,3,0.00
2013-6-8,78.7,62.8,56.0,59.6,53.6,50.4,84,73,50,30.09,29.92,2,0,2,0.00
2013-6-9,76.5,66.1,55.4,61.3,55.2,50.5,86,69,55,30.13,29.98,4,1,5,0.00
2013-6-10,71.6,65.0,59.8,67.9,61.0,51.9,92,87,61,29.98,29.76,2,0,4,0.00
2013-6-11,80.6,70.2,63.2,66.6,63.9,61.2,94,81,61,29.90,29.78,4,1,6,0.00
2013-6-12,74.2,69.0,63.2,68.1,64.7,59.6,91,86,81,29.88,29.67,2,0,2,0.00
2013-6-13,79.4,68.3,60.7,63.5,59.5,55.7,94,75,49,29.94,29.58,3,1,5,0.00
2013-6-14,82.1,66.3,58.1,58.1,54.6,51.3,83,67,40,30.08,29.94,4,1,5,0.00
2013-6-15,78.1,67.0,56.2,63.2,58.0,50.9,88,74,55,30.09,29.94,3,0,5,0.00
2013-6-16,85.7,71.0,64.1,67.5,61.6,54.3,93,74,38,29.94,29.78,4,1,6,0.00
2013-6-17,85.5,70.8,59.2,63.9,58.6,53.8,85,67,40,29.95,29.86,2,0,4,0.00
2013-6-18,76.0,63.3,55.1,57.2,52.3,43.1,89,69,43,30.09,29.91,4,1,4,0.00
2013-6-19,83.0,63.2,50.2,57.5,48.6,41.2,76,60,41,30.18,30.08,2,0,3,0.00
2013-6-20,88.9,68.0,52.9,63.4,54.3,47.6,85,64,40,30.23,30.16,3,0,5,0.00
2013-6-21,85.7,71.3,59.0,68.9,60.0,51.8,81,69,51,30.23,30.08,4,0,5,0.00
2013-6-22,87.8,75.7,67.7,74.1,66.8,59.9,82,74,62,30.12,30.01,4,0,4,0.00
2013-6-23,93.6,79.0,68.4,72.3,68.4,65.0,90,72,48,30.08,29.99,4,1,6,0.00
2013-6-24,88.4,76.9,67.5,73.2,67.7,62.5,88,74,56,30.09,29.95,3,0,7,0.00
2013-6-25,84.8,73.1,66.6,73.7,67.9,63.5,92,84,67,30.00,29.85,5,0,5,0.00
2013-6-26,88.2,74.7,65.7,75.3,68.4,63.2,93,81,64,29.90,29.78,3,0,7,0.00
2013-6-27,81.2,71.9,65.7,73.8,67.9,63.4,93,88,71,29.80,29.66,3,0,5,0.00
2013-6-28,75.4,67.7,63.7,68.1,64.2,61.1,95,89,72,29.67,29.55,4,0,4,0.00
2013-6-29,77.0,68.1,63.4,66.8,62.6,57.1,94,83,66,29.76,29.57,2,0,3,0.00
2013-6-30,82.1,69.7,61.2,65.2,60.4,56.5,89,73,52,29.95,29.76,2,0,3,0.00